Time;durP1;ratioP1;P1;durP2;ratioP2;P2;SDS_P1;SDS_P2;PMS_P1;PMS_P2;Temp;Humidity;BMP_temperature;BMP_pressure;BME280_temperature;BME280_humidity;BME280_pressure;Samples;Min_cycle;Max_cycle;Signal;HPM_P1;HPM_P2
2023/02/02 00:01:56;;;;;;;;;;;8.40;99.90;;;;;;5053531;28;20354;-78
2023/02/02 00:04:26;;;;;;;;;;;8.40;99.90;;;;;;5040921;28;19952;-77
2023/02/02 00:06:52;;;;;;;;;;;8.40;99.90;;;;;;5040479;28;20271;-78
2023/02/02 00:09:24;;;;;;;;;;;8.40;99.90;;;;;;5058532;28;20003;-77
2023/02/02 00:11:56;;;;;;;;;;;8.30;99.90;;;;;;5058066;28;19911;-77
2023/02/02 00:14:22;;;;;;;;;;;8.30;99.90;;;;;;5058436;28;19916;-77
2023/02/02 00:16:48;;;;;;;;;;;8.20;99.90;;;;;;5041047;28;19920;-77
2023/02/02 00:19:28;;;;;;;;;;;8.20;99.90;;;;;;5040622;28;19908;-78
2023/02/02 00:21:56;;;;;;;;;;;8.20;99.90;;;;;;5039413;28;19955;-77
2023/02/02 00:24:22;;;;;;;;;;;8.20;99.90;;;;;;5058266;28;20381;-77
2023/02/02 00:27:31;;;;;;;;;;;8.30;99.90;;;;;;5040352;28;20587;-77
2023/02/02 00:29:57;;;;;;;;;;;8.20;99.90;;;;;;5057336;28;19913;-77
2023/02/02 00:32:25;;;;;;;;;;;8.20;99.90;;;;;;5041072;28;19999;-79
2023/02/02 00:34:50;;;;;;;;;;;8.30;99.90;;;;;;5060590;28;19908;-78
2023/02/02 00:37:16;;;;;;;;;;;8.30;99.90;;;;;;5042855;28;19955;-78
2023/02/02 00:39:41;;;;;;;;;;;8.30;99.90;;;;;;5042807;28;19909;-78
2023/02/02 00:42:08;;;;;;;;;;;8.40;99.90;;;;;;5059350;28;19920;-79
2023/02/02 00:47:18;;;;;;;;;;;8.50;99.90;;;;;;5060773;28;20051;-79
2023/02/02 00:49:44;;;;;;;;;;;8.50;99.90;;;;;;5060398;28;19909;-79
2023/02/02 00:52:10;;;;;;;;;;;8.50;99.90;;;;;;5060384;28;19908;-79
2023/02/02 00:54:35;;;;;;;;;;;8.50;99.90;;;;;;5060856;28;19909;-79
2023/02/02 00:57:01;;;;;;;;;;;8.40;99.90;;;;;;5060483;28;19909;-79
2023/02/02 00:59:26;;;;;;;;;;;8.50;99.90;;;;;;5060568;28;20309;-80
2023/02/02 01:01:52;;;;;;;;;;;8.40;99.90;;;;;;5042167;28;19924;-79
2023/02/02 01:04:20;;;;;;;;;;;8.50;99.90;;;;;;5042495;28;20355;-78
2023/02/02 01:06:45;;;;;;;;;;;8.50;99.90;;;;;;5059981;28;20538;-79
2023/02/02 01:09:11;;;;;;;;;;;8.50;99.90;;;;;;5042069;28;19915;-79
2023/02/02 01:11:38;;;;;;;;;;;8.50;99.90;;;;;;5060304;28;19913;-79
2023/02/02 01:14:04;;;;;;;;;;;8.50;99.90;;;;;;5059683;28;19916;-79
2023/02/02 01:16:30;;;;;;;;;;;8.50;99.90;;;;;;5059973;28;19909;-79
2023/02/02 01:18:55;;;;;;;;;;;8.40;99.90;;;;;;5041331;28;19948;-79
2023/02/02 01:21:36;;;;;;;;;;;8.40;99.90;;;;;;5058679;28;20282;-79
2023/02/02 01:24:01;;;;;;;;;;;8.50;99.90;;;;;;5040446;28;19908;-79
2023/02/02 01:26:27;;;;;;;;;;;8.50;99.90;;;;;;5058174;28;19917;-79
2023/02/02 01:28:52;;;;;;;;;;;8.50;99.90;;;;;;5059554;28;20267;-78
2023/02/02 01:31:38;;;;;;;;;;;8.40;99.90;;;;;;5058599;28;19982;-79
2023/02/02 01:34:07;;;;;;;;;;;8.40;99.90;;;;;;5041390;28;19915;-79
2023/02/02 01:36:37;;;;;;;;;;;8.30;99.90;;;;;;5058928;28;19913;-79
2023/02/02 01:39:03;;;;;;;;;;;8.20;99.90;;;;;;5041304;28;19909;-79
2023/02/02 01:41:29;;;;;;;;;;;8.10;99.90;;;;;;5059176;28;20306;-79
2023/02/02 01:43:56;;;;;;;;;;;8.10;99.90;;;;;;5059354;28;20371;-79
2023/02/02 01:46:32;;;;;;;;;;;8.00;99.90;;;;;;5040626;28;19913;-79
2023/02/02 01:49:14;;;;;;;;;;;8.00;99.90;;;;;;5058320;28;19912;-79
2023/02/02 01:51:46;;;;;;;;;;;8.00;99.90;;;;;;5058433;28;19955;-79
2023/02/02 01:54:14;;;;;;;;;;;7.90;99.90;;;;;;5040360;28;19909;-79
2023/02/02 01:56:42;;;;;;;;;;;7.90;99.90;;;;;;5040418;28;20004;-79
2023/02/02 01:59:09;;;;;;;;;;;7.90;99.90;;;;;;5057876;28;20022;-78
2023/02/02 02:01:34;;;;;;;;;;;7.80;99.90;;;;;;5057249;28;20000;-79
2023/02/02 02:04:00;;;;;;;;;;;7.90;99.90;;;;;;5057845;28;19944;-78
2023/02/02 02:06:25;;;;;;;;;;;7.90;99.90;;;;;;5039353;28;19978;-77
2023/02/02 02:08:59;;;;;;;;;;;7.90;99.90;;;;;;5039714;28;19916;-79
2023/02/02 02:11:25;;;;;;;;;;;8.00;99.90;;;;;;5057734;28;19932;-79
2023/02/02 02:16:58;;;;;;;;;;;7.90;99.90;;;;;;5057628;28;19916;-79
2023/02/02 02:19:24;;;;;;;;;;;7.90;99.90;;;;;;5057516;28;19909;-79
2023/02/02 02:28:11;;;;;;;;;;;7.80;99.90;;;;;;5057036;28;19920;-79
2023/02/02 02:30:55;;;;;;;;;;;7.80;99.90;;;;;;5056968;28;20032;-79
2023/02/02 02:33:39;;;;;;;;;;;7.70;99.90;;;;;;5039333;28;19909;-79
2023/02/02 02:36:05;;;;;;;;;;;7.80;99.90;;;;;;5057128;28;19931;-79
2023/02/02 02:38:41;;;;;;;;;;;7.80;99.90;;;;;;5039042;28;20329;-78
2023/02/02 02:41:12;;;;;;;;;;;7.90;99.90;;;;;;5056435;28;19909;-79
2023/02/02 02:43:42;;;;;;;;;;;7.90;99.90;;;;;;5055923;28;20480;-79
2023/02/02 02:46:11;;;;;;;;;;;8.00;99.90;;;;;;5038251;28;19917;-78
2023/02/02 02:48:36;;;;;;;;;;;8.00;99.90;;;;;;5038673;28;20268;-79
2023/02/02 02:51:06;;;;;;;;;;;8.00;99.90;;;;;;5038579;28;20001;-78
2023/02/02 02:53:32;;;;;;;;;;;8.00;99.90;;;;;;5056947;28;20378;-79
2023/02/02 02:56:09;;;;;;;;;;;8.00;99.90;;;;;;5056829;28;19992;-78
2023/02/02 02:59:01;;;;;;;;;;;8.10;99.90;;;;;;5056485;28;19920;-78
2023/02/02 03:01:32;;;;;;;;;;;8.10;99.90;;;;;;5054511;28;20382;-79
2023/02/02 03:04:04;;;;;;;;;;;8.00;99.90;;;;;;5056060;28;19915;-78
2023/02/02 03:06:35;;;;;;;;;;;8.00;99.90;;;;;;5038026;28;19948;-79
2023/02/02 03:09:03;;;;;;;;;;;8.00;99.90;;;;;;5056391;28;19909;-78
2023/02/02 03:11:29;;;;;;;;;;;8.00;99.90;;;;;;5055865;28;20256;-78
2023/02/02 03:13:55;;;;;;;;;;;8.00;99.90;;;;;;5056206;28;19923;-78
2023/02/02 03:16:20;;;;;;;;;;;7.90;99.90;;;;;;5054834;28;20441;-79
2023/02/02 03:18:46;;;;;;;;;;;8.00;99.90;;;;;;5056472;28;19909;-78
2023/02/02 03:21:11;;;;;;;;;;;8.00;99.90;;;;;;5055706;28;19936;-79
2023/02/02 03:23:37;;;;;;;;;;;8.00;99.90;;;;;;5037860;28;20255;-79
2023/02/02 03:26:03;;;;;;;;;;;8.00;99.90;;;;;;5038156;28;19917;-79
2023/02/02 03:28:29;;;;;;;;;;;7.90;99.90;;;;;;5054255;28;19915;-78
2023/02/02 03:30:56;;;;;;;;;;;7.80;99.90;;;;;;5037276;28;19909;-79
2023/02/02 03:33:21;;;;;;;;;;;7.80;99.90;;;;;;5055309;28;19909;-78
2023/02/02 03:35:47;;;;;;;;;;;7.80;99.90;;;;;;5037142;28;19919;-78
2023/02/02 03:38:13;;;;;;;;;;;7.80;99.90;;;;;;5036933;28;19909;-78
2023/02/02 03:40:38;;;;;;;;;;;7.80;99.90;;;;;;5055600;28;19913;-78
2023/02/02 03:43:04;;;;;;;;;;;7.80;99.90;;;;;;5037146;28;19958;-79
2023/02/02 03:45:31;;;;;;;;;;;7.80;99.90;;;;;;5037537;28;20359;-78
2023/02/02 03:56:23;;;;;;;;;;;7.80;99.90;;;;;;5066921;28;19943;-79
2023/02/02 03:59:06;;;;;;;;;;;7.80;99.90;;;;;;5056538;28;19909;-79
2023/02/02 04:07:52;;;;;;;;;;;7.70;99.90;;;;;;5074593;28;19931;-79
2023/02/02 04:13:27;;;;;;;;;;;7.60;99.90;;;;;;5067242;28;20438;-79
2023/02/02 04:16:24;;;;;;;;;;;;;;;;;;;;;
2023/02/02 04:22:18;;;;;;;;;;;7.70;99.90;;;;;;5060750;28;19916;-79
2023/02/02 04:28:27;;;;;;;;;;;;;;;;;;;;;
2023/02/02 04:31:37;;;;;;;;;;;7.70;99.90;;;;;;5071890;28;19935;-79
2023/02/02 04:34:11;;;;;;;;;;;7.60;99.90;;;;;;4956166;28;20463;-78
2023/02/02 04:43:16;;;;;;;;;;;7.60;99.90;;;;;;4975212;28;19976;-78
2023/02/02 04:52:09;;;;;;;;;;;7.60;99.90;;;;;;5050225;28;20452;-78
2023/02/02 04:55:12;;;;;;;;;;;;;;;;;;;;;
2023/02/02 05:10:29;;;;;;;;;;;7.60;99.90;;;;;;4957121;29;19916;-78
2023/02/02 05:13:37;;;;;;;;;;;7.60;99.90;;;;;;4957094;29;20005;-79
2023/02/02 05:16:46;;;;;;;;;;;7.60;99.90;;;;;;4996076;28;19949;-79
2023/02/02 05:22:36;;;;;;;;;;;7.60;99.90;;;;;;4995357;28;19917;-78
2023/02/02 05:25:11;;;;;;;;;;;7.60;99.90;;;;;;4979018;28;19914;-79
2023/02/02 05:28:14;;;;;;;;;;;7.50;99.90;;;;;;4979783;28;19914;-79
2023/02/02 05:30:57;;;;;;;;;;;7.50;99.90;;;;;;4995351;28;20400;-78
2023/02/02 05:33:42;;;;;;;;;;;7.60;99.90;;;;;;4995175;28;19993;-79
2023/02/02 05:36:19;;;;;;;;;;;7.60;99.90;;;;;;4994943;28;19910;-78
2023/02/02 05:48:52;;;;;;;;;;;7.50;99.90;;;;;;5042203;28;19912;-79
2023/02/02 05:51:51;;;;;;;;;;;7.50;99.90;;;;;;5037313;28;19908;-79
2023/02/02 06:01:44;;;;;;;;;;;7.50;99.90;;;;;;4974527;28;19927;-78
2023/02/02 06:13:43;;;;;;;;;;;7.50;99.90;;;;;;5063909;28;19912;-79
2023/02/02 06:19:55;;;;;;;;;;;7.50;99.90;;;;;;5076057;28;19916;-79
2023/02/02 06:22:51;;;;;;;;;;;7.40;99.90;;;;;;5053305;28;19908;-80
2023/02/02 06:31:23;;;;;;;;;;;7.60;99.90;;;;;;5041831;28;20365;-79
2023/02/02 06:34:38;;;;;;;;;;;7.50;99.90;;;;;;5076296;28;19912;-79
2023/02/02 06:37:38;;;;;;;;;;;;;;;;;;;;;
2023/02/02 06:40:37;;;;;;;;;;;7.60;99.90;;;;;;5006477;28;19908;-79
2023/02/02 06:43:03;;;;;;;;;;;7.60;99.90;;;;;;5056996;28;19962;-78
2023/02/02 06:45:49;;;;;;;;;;;7.50;99.90;;;;;;5075426;28;20332;-78
2023/02/02 06:48:38;;;;;;;;;;;7.50;99.90;;;;;;5074884;28;19917;-79
2023/02/02 06:51:06;;;;;;;;;;;7.50;99.90;;;;;;5044249;28;19908;-79
2023/02/02 06:53:56;;;;;;;;;;;7.40;99.90;;;;;;5074201;28;19962;-78
2023/02/02 06:56:39;;;;;;;;;;;7.50;99.90;;;;;;5074466;28;19971;-79
2023/02/02 06:59:19;;;;;;;;;;;7.50;99.90;;;;;;5072862;28;19909;-79
2023/02/02 07:05:22;;;;;;;;;;;;;;;;;;;;;
2023/02/02 07:07:58;;;;;;;;;;;7.50;99.90;;;;;;5073502;28;20419;-78
2023/02/02 07:11:15;;;;;;;;;;;;;;;;;;;;;
2023/02/02 07:14:02;;;;;;;;;;;7.50;99.90;;;;;;4991986;28;19916;-79
2023/02/02 07:16:37;;;;;;;;;;;7.60;99.90;;;;;;4971626;28;19910;-79
2023/02/02 07:22:11;;;;;;;;;;;7.60;99.90;;;;;;4992153;28;19910;-79
2023/02/02 07:24:58;;;;;;;;;;;;;;;;;;;;;
2023/02/02 07:27:46;;;;;;;;;;;7.60;99.90;;;;;;4991627;28;19920;-78
2023/02/02 07:30:19;;;;;;;;;;;7.50;99.90;;;;;;4994740;28;20056;-77
2023/02/02 07:32:48;;;;;;;;;;;7.60;99.90;;;;;;5072201;28;20297;-77
2023/02/02 07:35:36;;;;;;;;;;;7.50;99.90;;;;;;5073689;28;19909;-77
2023/02/02 07:44:21;;;;;;;;;;;;;;;;;;;;;
2023/02/02 07:49:46;;;;;;;;;;;7.60;99.90;;;;;;5073761;28;19909;-77
2023/02/02 07:58:17;;;;;;;;;;;7.60;99.90;;;;;;5070354;28;19915;-77
2023/02/02 08:00:48;;;;;;;;;;;7.70;99.90;;;;;;5073177;28;19921;-77
2023/02/02 08:03:25;;;;;;;;;;;7.60;99.90;;;;;;5072460;28;19913;-78
2023/02/02 08:08:57;;;;;;;;;;;7.70;99.90;;;;;;5073574;28;19935;-77
2023/02/02 08:11:25;;;;;;;;;;;7.70;99.90;;;;;;5046275;28;19913;-77
2023/02/02 08:14:16;;;;;;;;;;;7.60;99.90;;;;;;5072749;28;19956;-77
2023/02/02 08:16:50;;;;;;;;;;;7.60;99.90;;;;;;5074073;28;19921;-77
2023/02/02 08:19:20;;;;;;;;;;;7.70;99.90;;;;;;5072719;28;19912;-77
2023/02/02 08:21:50;;;;;;;;;;;7.70;99.90;;;;;;5073338;28;19908;-78
2023/02/02 08:24:25;;;;;;;;;;;7.70;99.90;;;;;;5076782;28;19909;-77
2023/02/02 08:27:21;;;;;;;;;;;7.70;99.90;;;;;;5075415;28;19913;-77
2023/02/02 08:33:04;;;;;;;;;;;7.70;99.90;;;;;;5076989;28;20367;-77
2023/02/02 08:39:04;;;;;;;;;;;7.80;99.90;;;;;;5052216;28;19962;-77
2023/02/02 08:41:37;;;;;;;;;;;7.80;99.90;;;;;;5076798;28;19924;-77
2023/02/02 08:44:26;;;;;;;;;;;7.80;99.90;;;;;;5076861;28;19912;-78
2023/02/02 08:53:28;;;;;;;;;;;7.70;99.90;;;;;;5074037;28;19912;-77
2023/02/02 09:02:45;;;;;;;;;;;7.60;99.90;;;;;;4994904;28;20233;-77
2023/02/02 09:05:50;;;;;;;;;;;7.80;99.90;;;;;;5076415;28;19908;-77
2023/02/02 09:08:18;;;;;;;;;;;7.80;99.90;;;;;;5076880;28;20332;-77
2023/02/02 09:10:56;;;;;;;;;;;7.80;99.90;;;;;;5075159;28;19909;-77
2023/02/02 09:16:30;;;;;;;;;;;8.00;99.90;;;;;;5074215;28;19943;-77
2023/02/02 09:19:10;;;;;;;;;;;;;;;;;;;;;
2023/02/02 09:21:44;;;;;;;;;;;7.90;99.90;;;;;;5076732;28;19908;-79
2023/02/02 09:24:44;;;;;;;;;;;8.00;99.90;;;;;;5053739;28;20267;-77
2023/02/02 09:30:24;;;;;;;;;;;7.90;99.90;;;;;;5076513;28;20270;-78
2023/02/02 09:32:58;;;;;;;;;;;8.00;99.90;;;;;;5075015;28;20366;-78
2023/02/02 09:35:31;;;;;;;;;;;8.00;99.90;;;;;;5076648;28;19935;-78
2023/02/02 09:38:02;;;;;;;;;;;8.00;99.90;;;;;;5058327;28;20008;-77
2023/02/02 09:40:41;;;;;;;;;;;7.90;99.90;;;;;;5075982;28;19915;-78
2023/02/02 09:43:32;;;;;;;;;;;7.80;99.90;;;;;;5057637;28;19908;-78
2023/02/02 09:46:08;;;;;;;;;;;7.90;99.90;;;;;;5047647;28;19908;-78
2023/02/02 09:48:57;;;;;;;;;;;7.80;99.90;;;;;;5107571;22;19924;-78
2023/02/02 09:51:55;;;;;;;;;;;7.80;99.90;;;;;;5078761;28;20386;-78
2023/02/02 10:01:19;;;;;;;;;;;7.80;99.90;;;;;;5049393;28;19940;-78
2023/02/02 10:03:49;;;;;;;;;;;7.80;99.90;;;;;;5058566;28;19913;-79
2023/02/02 10:06:37;;;;;;;;;;;7.70;99.90;;;;;;5058604;28;19917;-79
2023/02/02 10:09:22;;;;;;;;;;;7.80;99.90;;;;;;5057281;28;19916;-79
2023/02/02 10:12:06;;;;;;;;;;;7.80;99.90;;;;;;5039771;28;19908;-79
2023/02/02 10:14:38;;;;;;;;;;;7.80;99.90;;;;;;5040160;28;19913;-79
2023/02/02 10:17:22;;;;;;;;;;;7.90;99.90;;;;;;5039628;28;20047;-79
2023/02/02 10:19:51;;;;;;;;;;;7.90;99.90;;;;;;5058882;28;19940;-79
2023/02/02 10:22:20;;;;;;;;;;;7.90;99.90;;;;;;5057787;28;19909;-78
2023/02/02 10:24:45;;;;;;;;;;;7.90;99.90;;;;;;5057801;28;20000;-79
2023/02/02 10:27:13;;;;;;;;;;;7.80;99.90;;;;;;5057713;28;19964;-79
2023/02/02 10:29:38;;;;;;;;;;;7.90;99.90;;;;;;5058403;28;19931;-79
2023/02/02 10:32:22;;;;;;;;;;;7.90;99.90;;;;;;5058076;28;20337;-79
2023/02/02 10:34:57;;;;;;;;;;;7.90;99.90;;;;;;5039968;28;19913;-79
2023/02/02 10:37:26;;;;;;;;;;;7.90;99.90;;;;;;5058076;28;19909;-79
2023/02/02 10:40:09;;;;;;;;;;;7.90;99.90;;;;;;5040273;28;19963;-78
2023/02/02 10:42:40;;;;;;;;;;;8.00;99.90;;;;;;5057782;28;19908;-79
2023/02/02 10:45:14;;;;;;;;;;;8.00;99.90;;;;;;5057267;28;20373;-78
2023/02/02 10:47:40;;;;;;;;;;;8.00;99.90;;;;;;5039007;28;19917;-78
2023/02/02 10:50:11;;;;;;;;;;;8.00;99.90;;;;;;5042324;28;19960;-79
2023/02/02 10:52:38;;;;;;;;;;;8.00;99.90;;;;;;5041354;28;20007;-78
2023/02/02 10:55:04;;;;;;;;;;;8.10;99.90;;;;;;5058977;28;19913;-79
2023/02/02 10:57:33;;;;;;;;;;;8.20;99.90;;;;;;5059190;28;19959;-78
2023/02/02 11:00:06;;;;;;;;;;;8.30;99.90;;;;;;5041784;28;19909;-78
2023/02/02 11:02:31;;;;;;;;;;;8.30;99.90;;;;;;5040771;28;20428;-79
2023/02/02 11:07:41;;;;;;;;;;;8.30;99.90;;;;;;5057324;28;19924;-79
2023/02/02 11:10:07;;;;;;;;;;;8.40;99.90;;;;;;5040834;28;19909;-78
2023/02/02 11:12:34;;;;;;;;;;;8.40;99.90;;;;;;5039951;28;20378;-79
2023/02/02 11:15:04;;;;;;;;;;;8.50;99.90;;;;;;5057298;28;19959;-78
2023/02/02 11:17:29;;;;;;;;;;;8.60;99.90;;;;;;5057833;28;19994;-79
2023/02/02 11:19:55;;;;;;;;;;;8.70;99.90;;;;;;5038989;28;20366;-78
2023/02/02 11:22:41;;;;;;;;;;;8.60;99.90;;;;;;5038741;28;19909;-78
2023/02/02 11:25:21;;;;;;;;;;;8.70;99.90;;;;;;5056157;28;20290;-78
2023/02/02 11:27:46;;;;;;;;;;;8.80;99.90;;;;;;5038656;28;19921;-79
2023/02/02 11:30:18;;;;;;;;;;;8.80;99.90;;;;;;5039103;28;20333;-78
2023/02/02 11:32:46;;;;;;;;;;;8.80;99.90;;;;;;5038791;28;19912;-78
2023/02/02 11:35:12;;;;;;;;;;;8.80;99.90;;;;;;5038843;28;19916;-78
2023/02/02 11:37:37;;;;;;;;;;;8.80;99.90;;;;;;5056826;28;20576;-79
2023/02/02 11:40:22;;;;;;;;;;;8.90;99.90;;;;;;5056258;28;20355;-79
2023/02/02 11:42:48;;;;;;;;;;;9.00;99.90;;;;;;5056708;28;19909;-78
2023/02/02 11:45:19;;;;;;;;;;;9.10;99.90;;;;;;5038351;28;19916;-79
2023/02/02 11:47:45;;;;;;;;;;;9.10;99.90;;;;;;5056282;28;19913;-78
2023/02/02 11:50:37;;;;;;;;;;;9.10;99.90;;;;;;5056635;28;19917;-78
2023/02/02 11:53:02;;;;;;;;;;;9.10;99.90;;;;;;5034616;28;19948;-78
2023/02/02 11:55:29;;;;;;;;;;;9.10;99.90;;;;;;5038612;28;20436;-78
2023/02/02 11:58:13;;;;;;;;;;;9.10;99.90;;;;;;5039703;28;19909;-78
2023/02/02 12:00:45;;;;;;;;;;;9.00;99.90;;;;;;5042662;28;20362;-78
2023/02/02 12:03:29;;;;;;;;;;;9.20;99.90;;;;;;5060095;28;19908;-78
2023/02/02 12:05:55;;;;;;;;;;;9.30;99.90;;;;;;5042226;28;19915;-78
2023/02/02 12:08:21;;;;;;;;;;;9.40;99.90;;;;;;5060445;28;19909;-78
2023/02/02 12:10:57;;;;;;;;;;;9.30;99.90;;;;;;5060221;28;19909;-78
2023/02/02 12:13:28;;;;;;;;;;;9.40;99.90;;;;;;5042585;28;20286;-79
2023/02/02 12:16:13;;;;;;;;;;;9.40;99.90;;;;;;5060326;28;19973;-78
2023/02/02 12:18:52;;;;;;;;;;;9.50;99.90;;;;;;5042502;28;19909;-78
2023/02/02 12:21:28;;;;;;;;;;;9.60;99.90;;;;;;5042407;28;20170;-78
2023/02/02 12:23:59;;;;;;;;;;;9.60;99.90;;;;;;5041947;28;19913;-78
2023/02/02 12:26:25;;;;;;;;;;;9.60;99.90;;;;;;5041953;28;20286;-78
2023/02/02 12:29:15;;;;;;;;;;;9.70;99.90;;;;;;5075179;22;19925;-78
2023/02/02 12:31:55;;;;;;;;;;;9.70;99.90;;;;;;5059537;28;20281;-78
2023/02/02 12:34:40;;;;;;;;;;;;;;;;;;;;;
2023/02/02 12:40:27;;;;;;;;;;;9.70;99.90;;;;;;5040067;28;19937;-78
2023/02/02 12:43:04;;;;;;;;;;;9.80;99.90;;;;;;5039920;28;20341;-78
2023/02/02 12:45:49;;;;;;;;;;;9.80;99.90;;;;;;5037582;28;19924;-78
2023/02/02 12:48:20;;;;;;;;;;;9.90;99.90;;;;;;5039350;28;20011;-78
2023/02/02 12:51:04;;;;;;;;;;;9.90;99.90;;;;;;5040012;28;20393;-78
2023/02/02 12:53:38;;;;;;;;;;;9.80;99.90;;;;;;5039821;28;19968;-78
2023/02/02 12:56:12;;;;;;;;;;;9.70;99.90;;;;;;5038167;28;19963;-78
2023/02/02 12:58:43;;;;;;;;;;;9.80;99.90;;;;;;5037633;28;19920;-78
2023/02/02 13:01:08;;;;;;;;;;;10.00;99.90;;;;;;5038090;28;20223;-78
2023/02/02 13:03:52;;;;;;;;;;;10.00;99.90;;;;;;5038724;28;19910;-78
2023/02/02 13:06:33;;;;;;;;;;;10.10;99.90;;;;;;5037416;28;19913;-77
2023/02/02 13:09:12;;;;;;;;;;;10.00;99.90;;;;;;5038064;28;20405;-78
2023/02/02 13:11:53;;;;;;;;;;;10.00;99.90;;;;;;5038685;28;20310;-78
2023/02/02 13:14:23;;;;;;;;;;;10.20;99.90;;;;;;5038928;28;20001;-78
2023/02/02 13:16:51;;;;;;;;;;;10.30;99.90;;;;;;5039516;28;20353;-78
2023/02/02 13:19:40;;;;;;;;;;;10.40;99.90;;;;;;5038725;28;19916;-79
2023/02/02 13:22:09;;;;;;;;;;;10.40;99.90;;;;;;5038023;28;19909;-79
2023/02/02 13:24:36;;;;;;;;;;;10.30;99.90;;;;;;5037315;28;19909;-80
2023/02/02 13:27:04;;;;;;;;;;;10.30;99.90;;;;;;5024592;28;19917;-83
2023/02/02 13:29:45;;;;;;;;;;;10.10;99.90;;;;;;5036008;28;19921;-83
2023/02/02 13:32:13;;;;;;;;;;;10.30;99.90;;;;;;5034918;28;19918;-82
2023/02/02 13:34:39;;;;;;;;;;;10.30;99.90;;;;;;5031381;28;19921;-82
2023/02/02 13:37:24;;;;;;;;;;;10.30;99.90;;;;;;5037034;28;19909;-82
2023/02/02 13:39:54;;;;;;;;;;;10.30;99.90;;;;;;5052297;28;19917;-84
2023/02/02 13:42:26;;;;;;;;;;;10.20;99.90;;;;;;5052382;28;19948;-82
2023/02/02 13:45:05;;;;;;;;;;;10.10;99.90;;;;;;5052913;28;19953;-84
2023/02/02 13:47:41;;;;;;;;;;;10.10;99.90;;;;;;5052589;28;19917;-84
2023/02/02 13:50:12;;;;;;;;;;;10.10;99.90;;;;;;5053215;28;20322;-83
2023/02/02 13:52:44;;;;;;;;;;;10.00;99.90;;;;;;5052224;28;19910;-83
2023/02/02 13:55:18;;;;;;;;;;;10.00;99.90;;;;;;5052255;28;19913;-82
2023/02/02 14:14:30;;;;;;;;;;;10.10;99.90;;;;;;5054488;28;19924;-82
2023/02/02 14:15:58;;;;;;;;;;;10.20;99.90;;;;;;5056541;28;19908;-82
2023/02/02 14:18:50;;;;;;;;;;;10.30;99.90;;;;;;5057308;28;19920;-80
2023/02/02 14:21:34;;;;;;;;;;;10.40;99.90;;;;;;5056056;28;19931;-82
2023/02/02 14:24:01;;;;;;;;;;;10.50;99.90;;;;;;5055714;28;19909;-80
2023/02/02 14:26:47;;;;;;;;;;;10.40;99.90;;;;;;5055528;28;19923;-81
2023/02/02 14:29:30;;;;;;;;;;;10.40;99.90;;;;;;5055868;28;19978;-82
2023/02/02 14:31:58;;;;;;;;;;;10.60;99.90;;;;;;5043570;28;20000;-81
2023/02/02 14:34:29;;;;;;;;;;;10.60;99.90;;;;;;5035238;28;19924;-82
2023/02/02 14:37:04;;;;;;;;;;;10.60;99.90;;;;;;5055084;28;19909;-82
2023/02/02 14:39:29;;;;;;;;;;;10.60;99.90;;;;;;5054890;28;20417;-82
2023/02/02 14:44:59;;;;;;;;;;;10.50;99.90;;;;;;5017498;28;19973;-82
2023/02/02 14:47:40;;;;;;;;;;;10.40;99.90;;;;;;5033907;28;20363;-83
2023/02/02 14:50:11;;;;;;;;;;;10.40;99.90;;;;;;5034271;28;19909;-82
2023/02/02 14:52:36;;;;;;;;;;;10.40;99.90;;;;;;5042880;28;19909;-83
2023/02/02 14:55:02;;;;;;;;;;;10.40;99.90;;;;;;5051424;28;19916;-80
2023/02/02 14:57:27;;;;;;;;;;;10.40;99.90;;;;;;5035433;28;19909;-81
2023/02/02 14:59:54;;;;;;;;;;;10.40;99.90;;;;;;5037008;28;19920;-80
2023/02/02 15:02:29;;;;;;;;;;;10.40;99.90;;;;;;5051463;28;19909;-80
2023/02/02 15:05:14;;;;;;;;;;;10.40;99.90;;;;;;5004717;28;20315;-82
2023/02/02 15:07:51;;;;;;;;;;;10.40;99.90;;;;;;5049133;28;19917;-81
2023/02/02 15:10:37;;;;;;;;;;;10.40;99.90;;;;;;5034703;28;20383;-80
2023/02/02 15:13:08;;;;;;;;;;;10.30;99.90;;;;;;5048643;28;19983;-79
2023/02/02 15:15:36;;;;;;;;;;;10.30;99.90;;;;;;5033789;28;19909;-79
2023/02/02 15:18:20;;;;;;;;;;;10.40;99.90;;;;;;5033643;28;19909;-79
2023/02/02 15:20:48;;;;;;;;;;;10.30;99.90;;;;;;5033782;28;20397;-80
2023/02/02 15:23:21;;;;;;;;;;;10.30;99.90;;;;;;5033293;28;20015;-80
2023/02/02 15:25:46;;;;;;;;;;;10.40;99.90;;;;;;5048791;28;19916;-80
2023/02/02 15:28:21;;;;;;;;;;;10.30;99.90;;;;;;5033814;28;20370;-80
2023/02/02 15:30:50;;;;;;;;;;;10.30;99.90;;;;;;5048881;28;19916;-81
2023/02/02 15:33:35;;;;;;;;;;;10.30;99.90;;;;;;5033816;28;19909;-80
2023/02/02 15:36:24;;;;;;;;;;;10.40;99.90;;;;;;5048674;28;19915;-81
2023/02/02 15:38:54;;;;;;;;;;;10.30;99.90;;;;;;5030016;28;19932;-81
2023/02/02 15:41:22;;;;;;;;;;;10.30;99.90;;;;;;5048066;28;20389;-82
2023/02/02 15:43:48;;;;;;;;;;;10.20;99.90;;;;;;5033594;28;19910;-82
2023/02/02 15:46:22;;;;;;;;;;;10.30;99.90;;;;;;5034021;28;19975;-81
2023/02/02 15:54:13;;;;;;;;;;;10.10;99.90;;;;;;5039109;28;19924;-82
2023/02/02 15:56:58;;;;;;;;;;;10.10;99.90;;;;;;5042794;28;19913;-83
2023/02/02 15:59:41;;;;;;;;;;;10.20;99.90;;;;;;5183179;22;19933;-82
2023/02/02 16:02:07;;;;;;;;;;;10.20;99.90;;;;;;5042909;28;19912;-83
2023/02/02 16:04:53;;;;;;;;;;;10.10;99.90;;;;;;5054668;28;20519;-83
2023/02/02 16:07:27;;;;;;;;;;;10.10;99.90;;;;;;5055416;28;19912;-81
2023/02/02 16:10:04;;;;;;;;;;;10.10;99.90;;;;;;5034396;28;19909;-81
2023/02/02 16:28:02;;;;;;;;;;;10.20;99.90;;;;;;5045825;28;19920;-82
2023/02/02 16:34:14;;;;;;;;;;;;;;;;;;;;;
2023/02/02 16:36:56;;;;;;;;;;;10.30;99.90;;;;;;5025659;28;19913;-81
2023/02/02 16:42:32;;;;;;;;;;;10.20;99.90;;;;;;4992628;28;19910;-81
2023/02/02 16:48:21;;;;;;;;;;;10.20;99.90;;;;;;4983752;28;19937;-81
2023/02/02 16:51:00;;;;;;;;;;;10.20;99.90;;;;;;4995723;28;19910;-81
2023/02/02 16:53:32;;;;;;;;;;;10.20;99.90;;;;;;4995028;28;20004;-81
2023/02/02 16:56:18;;;;;;;;;;;10.10;99.90;;;;;;4979665;28;19917;-82
2023/02/02 16:59:09;;;;;;;;;;;10.20;99.90;;;;;;4982535;28;20267;-82
2023/02/02 17:04:45;;;;;;;;;;;10.20;99.90;;;;;;5059149;28;19959;-82
2023/02/02 17:07:17;;;;;;;;;;;10.00;99.90;;;;;;5050731;28;20332;-82
2023/02/02 17:09:44;;;;;;;;;;;9.90;99.90;;;;;;5041241;28;19909;-81
2023/02/02 17:18:10;;;;;;;;;;;9.80;99.90;;;;;;5055784;28;19916;-81
2023/02/02 17:21:06;;;;;;;;;;;9.70;99.90;;;;;;5037604;28;19915;-82
2023/02/02 17:26:12;;;;;;;;;;;9.40;99.90;;;;;;5055159;28;19909;-79
2023/02/02 17:28:39;;;;;;;;;;;9.30;99.90;;;;;;5055374;28;20424;-79
2023/02/02 17:31:06;;;;;;;;;;;9.20;99.90;;;;;;5055764;28;19955;-79
2023/02/02 17:33:32;;;;;;;;;;;9.20;99.90;;;;;;5038051;28;19909;-79
2023/02/02 17:35:58;;;;;;;;;;;9.10;99.90;;;;;;5055413;28;19917;-79
2023/02/02 17:38:24;;;;;;;;;;;9.00;99.90;;;;;;5055224;28;20264;-79
2023/02/02 17:40:50;;;;;;;;;;;9.00;99.90;;;;;;5055530;28;19909;-79
2023/02/02 17:43:15;;;;;;;;;;;9.10;99.90;;;;;;5055411;28;20003;-79
2023/02/02 17:45:41;;;;;;;;;;;9.00;99.90;;;;;;5037478;28;20007;-79
2023/02/02 17:48:09;;;;;;;;;;;9.10;99.90;;;;;;5037580;28;20366;-79
2023/02/02 17:50:40;;;;;;;;;;;9.00;99.90;;;;;;5054882;28;20366;-79
2023/02/02 17:53:16;;;;;;;;;;;9.00;99.90;;;;;;5055275;28;20414;-78
2023/02/02 17:55:42;;;;;;;;;;;9.00;99.90;;;;;;5036201;28;19909;-79
2023/02/02 17:58:09;;;;;;;;;;;9.00;99.90;;;;;;5037800;28;20492;-79
2023/02/02 18:00:35;;;;;;;;;;;8.90;99.90;;;;;;5055010;28;19947;-79
2023/02/02 18:03:18;;;;;;;;;;;8.90;99.90;;;;;;5037108;28;19909;-79
2023/02/02 18:14:53;;;;;;;;;;;;;;;;;;;;;
2023/02/02 18:17:57;;;;;;;;;;;8.70;99.90;;;;;;5043088;28;19923;-79
2023/02/02 18:20:23;;;;;;;;;;;8.70;99.90;;;;;;5034037;28;19917;-79
2023/02/02 18:26:02;;;;;;;;;;;8.70;99.90;;;;;;5055115;28;19959;-79
2023/02/02 18:28:31;;;;;;;;;;;8.80;99.90;;;;;;5035964;28;19920;-79
2023/02/02 18:31:05;;;;;;;;;;;8.70;99.90;;;;;;5036311;28;19916;-80
2023/02/02 18:33:43;;;;;;;;;;;8.70;99.90;;;;;;5034543;28;19920;-79
2023/02/02 18:36:32;;;;;;;;;;;8.70;99.90;;;;;;5036668;28;19920;-80
2023/02/02 18:39:15;;;;;;;;;;;8.80;99.90;;;;;;5021941;28;19909;-80
2023/02/02 18:44:16;;;;;;;;;;;8.80;99.90;;;;;;5073538;28;20097;-83
2023/02/02 18:46:42;;;;;;;;;;;8.80;99.90;;;;;;5059737;28;19970;-82
2023/02/02 18:49:08;;;;;;;;;;;8.90;99.90;;;;;;5084398;28;19930;-83
2023/02/02 18:51:33;;;;;;;;;;;8.90;99.90;;;;;;5082414;28;19908;-82
2023/02/02 18:53:59;;;;;;;;;;;8.90;99.90;;;;;;5077434;28;19977;-81
2023/02/02 18:56:26;;;;;;;;;;;8.90;99.90;;;;;;5083823;28;19916;-83
2023/02/02 18:58:52;;;;;;;;;;;8.80;99.90;;;;;;5059855;28;19935;-81
2023/02/02 19:01:18;;;;;;;;;;;8.90;99.90;;;;;;5055492;28;20369;-82
2023/02/02 19:03:47;;;;;;;;;;;8.90;99.90;;;;;;5055248;28;19943;-83
2023/02/02 19:08:57;;;;;;;;;;;9.10;99.90;;;;;;5058539;28;19920;-82
2023/02/02 19:11:23;;;;;;;;;;;9.10;99.90;;;;;;5045798;28;19909;-82
2023/02/02 19:13:49;;;;;;;;;;;9.10;99.90;;;;;;5055049;28;19908;-82
2023/02/02 19:16:25;;;;;;;;;;;9.20;99.90;;;;;;5054683;28;19962;-82
2023/02/02 19:18:54;;;;;;;;;;;9.10;99.90;;;;;;5039094;28;19913;-83
2023/02/02 19:21:19;;;;;;;;;;;9.30;99.90;;;;;;5029808;28;19935;-83
2023/02/02 19:23:45;;;;;;;;;;;9.30;99.90;;;;;;5033487;28;19913;-82